Time;durP1;ratioP1;P1;durP2;ratioP2;P2;SDS_P1;SDS_P2;PMS_P1;PMS_P2;Temp;Humidity;BMP_temperature;BMP_pressure;BME280_temperature;BME280_humidity;BME280_pressure;Samples;Min_cycle;Max_cycle;Signal;HPM_P1;HPM_P2
2022/10/05 15:31:51;;;;;;;1.03;1.03;;;20.50;99.90;;;;;;5094864;27;20592;-65
2022/10/05 15:34:22;;;;;;;1.67;1.43;;;20.50;99.90;;;;;;5069260;28;20440;-68
2022/10/05 15:36:52;;;;;;;1.30;1.20;;;20.50;99.90;;;;;;5069473;28;20456;-65
2022/10/05 15:39:28;;;;;;;2.10;1.10;;;20.60;99.90;;;;;;5097768;28;20499;-69
2022/10/05 15:41:59;;;;;;;1.77;1.67;;;20.60;99.90;;;;;;5109625;28;20461;-66
2022/10/05 15:44:41;;;;;;;1.40;1.30;;;20.70;99.90;;;;;;5109894;28;20945;-66
2022/10/05 15:47:17;;;;;;;1.60;1.43;;;20.70;99.90;;;;;;5109690;28;20441;-66
2022/10/05 15:49:56;;;;;;;1.73;1.63;;;20.70;99.90;;;;;;5107632;28;20560;-67
2022/10/05 15:52:27;;;;;;;1.50;1.50;;;20.70;99.90;;;;;;5109156;28;20457;-68
2022/10/05 15:55:21;;;;;;;1.30;1.27;;;20.70;99.90;;;;;;5107486;28;20965;-64
2022/10/05 15:57:57;;;;;;;1.13;0.97;;;20.80;99.90;;;;;;5099063;28;20491;-70
2022/10/05 16:00:28;;;;;;;1.30;1.20;;;20.80;99.90;;;;;;5109068;28;20453;-68
2022/10/05 16:03:08;;;;;;;1.57;1.20;;;20.80;99.90;;;;;;5108950;28;21006;-71
2022/10/05 16:09:05;;;;;;;1.10;1.10;;;20.90;99.90;;;;;;5090842;28;20963;-68
2022/10/05 16:11:49;;;;;;;5.10;1.30;;;20.90;99.90;;;;;;5046028;28;20480;-65
2022/10/05 16:14:29;;;;;;;1.10;1.10;;;20.90;99.90;;;;;;5085204;28;20512;-66
2022/10/05 16:17:15;;;;;;;3.17;1.17;;;20.90;99.90;;;;;;5092608;28;20438;-66
2022/10/05 16:19:55;;;;;;;1.33;1.20;;;20.90;99.90;;;;;;5086489;28;20486;-65
2022/10/05 16:22:36;;;;;;;1.30;1.20;;;20.90;99.90;;;;;;5088155;28;20438;-62
2022/10/05 16:25:10;;;;;;;1.30;1.20;;;20.90;99.90;;;;;;5088526;28;20857;-68
2022/10/05 16:27:52;;;;;;;1.73;1.60;;;21.00;99.90;;;;;;5098329;28;20791;-69
2022/10/05 16:30:21;;;;;;;1.23;1.23;;;20.90;99.90;;;;;;5108670;28;20489;-68
2022/10/05 16:32:58;;;;;;;3.50;1.23;;;20.90;99.90;;;;;;5108693;28;20446;-65
2022/10/05 16:35:38;;;;;;;1.40;1.40;;;20.90;99.90;;;;;;5103222;28;20453;-67
2022/10/05 16:38:17;;;;;;;1.50;1.40;;;21.00;99.90;;;;;;5089831;28;20529;-65
2022/10/05 16:40:54;;;;;;;1.30;1.20;;;21.00;99.90;;;;;;5088383;28;20468;-63
2022/10/05 16:43:31;;;;;;;1.17;1.17;;;21.00;99.90;;;;;;5074422;28;20543;-66
2022/10/05 16:46:07;;;;;;;1.53;1.43;;;21.00;99.90;;;;;;5084720;28;20446;-66
2022/10/05 16:48:42;;;;;;;1.37;1.27;;;21.00;99.90;;;;;;5094995;28;20433;-66
2022/10/05 16:51:23;;;;;;;1.40;1.40;;;21.00;99.90;;;;;;5095171;28;20855;-66
2022/10/05 16:53:59;;;;;;;1.87;1.50;;;21.00;99.90;;;;;;5095130;28;20488;-66
2022/10/05 16:56:33;;;;;;;1.03;1.03;;;21.00;99.90;;;;;;5081233;28;20447;-66
2022/10/05 16:59:13;;;;;;;1.00;1.00;;;21.00;99.90;;;;;;5074757;28;20451;-66
2022/10/05 17:01:52;;;;;;;4.47;1.30;;;21.00;99.90;;;;;;5074653;28;20477;-66
2022/10/05 17:04:32;;;;;;;1.53;1.23;;;21.00;99.90;;;;;;5074449;28;20444;-64
2022/10/05 17:07:24;;;;;;;1.37;1.27;;;21.00;99.90;;;;;;5092118;28;20504;-65
2022/10/05 17:10:27;;;;;;;0.90;0.90;;;21.00;99.90;;;;;;5094468;28;20489;-65
2022/10/05 17:13:03;;;;;;;0.93;0.93;;;21.00;99.90;;;;;;5068471;28;20537;-66
2022/10/05 17:15:36;;;;;;;1.10;1.00;;;21.00;99.90;;;;;;5088828;28;20451;-66
2022/10/05 17:18:28;;;;;;;2.00;1.80;;;21.00;99.90;;;;;;5074462;28;20450;-65
2022/10/05 17:21:06;;;;;;;1.10;1.10;;;21.00;99.90;;;;;;5074189;28;20464;-66
2022/10/05 17:23:49;;;;;;;1.10;1.10;;;21.00;99.90;;;;;;5073914;28;20479;-66
2022/10/05 17:26:38;;;;;;;1.10;1.00;;;21.00;99.90;;;;;;5085093;28;20461;-63
2022/10/05 17:29:15;;;;;;;1.93;1.30;;;21.10;99.90;;;;;;5094228;28;20438;-67
2022/10/05 17:32:02;;;;;;;1.10;1.00;;;21.10;99.90;;;;;;5094404;28;20493;-65
2022/10/05 17:34:33;;;;;;;0.97;0.97;;;21.10;99.90;;;;;;5085163;28;20850;-64
2022/10/05 17:37:18;;;;;;;1.63;1.13;;;21.10;99.90;;;;;;5073931;28;20453;-62
2022/10/05 17:39:50;;;;;;;1.10;1.10;;;21.10;99.90;;;;;;5073894;28;20489;-63
2022/10/05 17:42:47;;;;;;;1.10;1.00;;;21.10;99.90;;;;;;5079029;28;20500;-62
2022/10/05 17:45:50;;;;;;;1.40;1.30;;;21.20;99.90;;;;;;5093745;28;20449;-62
2022/10/05 17:48:36;;;;;;;2.87;1.30;;;21.20;99.90;;;;;;5094000;28;20468;-66
2022/10/05 17:57:29;;;;;;;2.00;0.93;;;21.20;99.90;;;;;;5072986;28;20561;-65
2022/10/05 17:59:59;;;;;;;1.13;1.13;;;21.20;99.90;;;;;;5071220;28;20451;-66
2022/10/05 18:02:41;;;;;;;1.13;1.13;;;21.20;99.90;;;;;;5073939;28;21006;-64
2022/10/05 18:05:26;;;;;;;2.20;1.10;;;21.20;99.90;;;;;;5073243;28;20932;-68
2022/10/05 18:08:36;;;;;;;0.90;0.90;;;21.20;99.90;;;;;;5073491;28;20456;-64
2022/10/05 18:11:35;;;;;;;1.30;1.20;;;21.30;99.90;;;;;;5073240;28;20487;-66
2022/10/05 18:14:22;;;;;;;1.03;0.93;;;21.30;99.90;;;;;;5074359;28;20444;-68
2022/10/05 18:16:59;;;;;;;0.93;0.87;;;21.40;99.90;;;;;;5073160;28;20521;-67
2022/10/05 18:19:29;;;;;;;1.27;0.83;;;21.40;99.90;;;;;;5073222;28;20493;-68
2022/10/05 18:22:07;;;;;;;1.40;1.40;;;21.40;99.90;;;;;;5072823;28;20455;-63
2022/10/05 18:24:54;;;;;;;0.80;0.80;;;21.40;99.90;;;;;;5052767;28;20436;-64
2022/10/05 18:28:07;;;;;;;1.00;1.00;;;21.40;99.90;;;;;;5079888;28;20447;-63
2022/10/05 18:30:44;;;;;;;1.57;1.27;;;21.50;99.90;;;;;;5052574;28;20484;-66
2022/10/05 18:33:45;;;;;;;1.40;1.40;;;21.50;99.90;;;;;;5073602;28;20840;-64
2022/10/05 18:36:27;;;;;;;1.37;1.37;;;21.50;99.90;;;;;;5092989;28;20919;-66
2022/10/05 18:39:03;;;;;;;0.80;0.80;;;21.50;99.90;;;;;;5092766;28;20446;-67
2022/10/05 18:41:47;;;;;;;0.70;0.70;;;21.50;99.90;;;;;;5093072;28;20561;-67
2022/10/05 18:44:26;;;;;;;1.10;1.10;;;21.50;99.90;;;;;;5073392;28;20475;-68
2022/10/05 18:47:00;;;;;;;2.83;0.90;;;21.50;99.90;;;;;;5072463;28;20534;-67
2022/10/05 18:49:43;;;;;;;1.10;1.10;;;21.50;99.90;;;;;;5072634;28;20427;-69
2022/10/05 18:52:17;;;;;;;0.83;0.83;;;21.50;99.90;;;;;;5087846;28;20485;-68
2022/10/05 18:54:54;;;;;;;0.93;0.80;;;21.60;99.90;;;;;;5093188;28;20447;-64
2022/10/05 18:57:43;;;;;;;0.80;0.80;;;21.60;99.90;;;;;;5092432;28;20450;-66
2022/10/05 19:00:15;;;;;;;1.10;1.10;;;21.60;99.90;;;;;;5092375;28;20500;-65
2022/10/05 19:02:48;;;;;;;0.80;0.80;;;21.60;99.90;;;;;;5083592;28;20763;-64
2022/10/05 19:05:31;;;;;;;0.80;0.80;;;21.60;99.90;;;;;;5071951;28;20865;-65
2022/10/05 19:08:07;;;;;;;0.90;0.90;;;21.60;99.90;;;;;;5072405;28;20534;-64
2022/10/05 19:10:43;;;;;;;0.73;0.73;;;21.60;99.90;;;;;;5073450;28;20455;-70
2022/10/05 19:13:24;;;;;;;0.83;0.83;;;21.60;99.90;;;;;;5092307;28;20447;-66
2022/10/05 19:16:05;;;;;;;0.90;0.90;;;21.60;99.90;;;;;;5092229;28;20453;-65
2022/10/05 19:18:49;;;;;;;2.70;0.80;;;21.60;99.90;;;;;;5092444;28;20537;-66
2022/10/05 19:21:28;;;;;;;1.17;1.17;;;21.60;99.90;;;;;;5084733;28;20499;-66
2022/10/05 19:24:40;;;;;;;0.90;0.90;;;21.60;99.90;;;;;;5071733;28;21035;-64
2022/10/05 19:27:17;;;;;;;0.97;0.97;;;21.60;99.90;;;;;;5063310;28;20458;-65
2022/10/05 19:29:54;;;;;;;0.90;0.90;;;21.60;99.90;;;;;;5071681;28;20482;-65
2022/10/05 19:32:34;;;;;;;1.10;1.00;;;21.60;99.90;;;;;;5087279;28;21069;-65
2022/10/05 19:35:18;;;;;;;1.10;0.93;;;21.60;99.90;;;;;;5051730;28;20448;-66
2022/10/05 19:37:55;;;;;;;1.40;1.30;;;21.60;99.90;;;;;;5051908;28;20530;-65
